createdAt,value
2019-05-28T00:00:02.439Z,87.03
2019-05-28T00:03:05.961Z,87.81
2019-05-28T00:06:13.168Z,87.18
2019-05-28T00:09:19.804Z,87.47
2019-05-28T00:12:26.100Z,87.46
2019-05-28T00:15:32.504Z,87.04
2019-05-28T00:18:39.000Z,87.21
2019-05-28T00:21:46.437Z,87.80
2019-05-28T00:24:52.927Z,87.67
2019-05-28T00:27:59.457Z,87.64
2019-05-28T00:31:05.943Z,88.09
2019-05-28T00:34:13.468Z,87.78
2019-05-28T00:37:19.806Z,87.99
2019-05-28T00:40:26.153Z,87.96
2019-05-28T00:43:32.835Z,87.65
2019-05-28T00:46:39.602Z,87.35
2019-05-28T00:49:49.493Z,87.27
2019-05-28T00:52:54.117Z,87.71
2019-05-28T00:56:00.827Z,87.34
2019-05-28T00:59:07.246Z,86.95
2019-05-28T01:02:13.597Z,87.08
2019-05-28T01:05:20.051Z,87.34
2019-05-28T01:08:26.779Z,87.45
2019-05-28T01:11:33.234Z,86.88
2019-05-28T01:14:39.567Z,87.67
2019-05-28T01:17:46.015Z,87.33
2019-05-28T01:20:52.406Z,86.60
2019-05-28T01:23:58.827Z,86.86
2019-05-28T01:27:05.151Z,86.44
2019-05-28T01:30:11.632Z,86.17
2019-05-28T01:33:18.010Z,86.13
2019-05-28T01:36:24.384Z,86.06
2019-05-28T01:39:30.764Z,85.98
2019-05-28T01:42:37.247Z,85.99
2019-05-28T01:45:43.858Z,86.11
2019-05-28T01:48:50.294Z,85.36
2019-05-28T01:51:56.594Z,85.33
2019-05-28T01:55:03.125Z,85.94
2019-05-28T01:58:09.530Z,85.95
2019-05-28T02:01:15.960Z,85.65
2019-05-28T02:04:22.487Z,86.11
2019-05-28T02:07:31.618Z,85.97
2019-05-28T02:10:38.215Z,86.63
2019-05-28T02:13:44.679Z,86.21
2019-05-28T02:16:51.142Z,86.31
2019-05-28T02:19:57.554Z,86.20
2019-05-28T02:23:04.060Z,86.39
2019-05-28T02:26:10.436Z,86.19
2019-05-28T02:29:16.495Z,86.12
2019-05-28T02:32:23.063Z,85.60
2019-05-28T02:35:29.665Z,85.41
2019-05-28T02:38:35.951Z,85.46
2019-05-28T02:41:42.433Z,85.64
2019-05-28T02:44:49.023Z,85.31
2019-05-28T02:47:55.737Z,85.17
2019-05-28T02:51:03.872Z,84.68
2019-05-28T02:54:10.601Z,84.66
2019-05-28T02:57:17.494Z,84.57
2019-05-28T03:00:23.983Z,84.39
2019-05-28T03:03:31.487Z,84.17
2019-05-28T03:06:39.283Z,84.50
2019-05-28T03:09:47.164Z,84.11
2019-05-28T03:12:53.937Z,83.91
2019-05-28T03:16:03.010Z,84.10
2019-05-28T03:19:09.809Z,84.15
2019-05-28T03:22:17.568Z,84.04
2019-05-28T03:25:24.960Z,84.00
2019-05-28T03:28:31.660Z,83.80
2019-05-28T03:31:38.139Z,83.67
2019-05-28T03:34:44.501Z,83.71
2019-05-28T03:37:51.297Z,83.55
2019-05-28T03:40:57.620Z,83.52
2019-05-28T03:44:04.277Z,82.97
2019-05-28T03:47:10.690Z,82.97
2019-05-28T03:50:17.104Z,82.81
2019-05-28T03:53:23.564Z,82.61
2019-05-28T03:56:29.951Z,82.50
2019-05-28T03:59:36.444Z,82.50
2019-05-28T04:02:42.936Z,82.08
2019-05-28T04:05:49.364Z,82.33
2019-05-28T04:08:55.724Z,82.17
2019-05-28T04:12:03.034Z,81.99
2019-05-28T04:15:09.929Z,81.62
2019-05-28T04:18:16.320Z,81.35
2019-05-28T04:21:22.761Z,80.90
2019-05-28T04:24:29.132Z,80.52
2019-05-28T04:27:35.842Z,80.39
2019-05-28T04:30:42.536Z,80.03
2019-05-28T04:33:48.908Z,79.54
2019-05-28T04:36:55.216Z,79.02
2019-05-28T04:40:01.740Z,78.67
2019-05-28T04:43:08.370Z,78.38
2019-05-28T04:46:14.692Z,78.26
2019-05-28T04:49:21.310Z,77.04
2019-05-28T04:52:30.647Z,76.57
2019-05-28T04:55:36.024Z,76.17
2019-05-28T04:58:42.467Z,76.13
2019-05-28T05:01:49.095Z,75.52
2019-05-28T05:04:55.749Z,75.52
2019-05-28T05:08:02.192Z,75.35
2019-05-28T05:11:08.552Z,74.99
2019-05-28T05:14:15.076Z,74.83
2019-05-28T05:17:21.637Z,75.11
2019-05-28T05:20:27.943Z,75.32
2019-05-28T05:23:34.296Z,74.95
2019-05-28T05:26:40.769Z,73.85
2019-05-28T05:29:47.376Z,74.06
2019-05-28T05:32:53.691Z,74.17
2019-05-28T05:36:00.062Z,74.12
2019-05-28T05:39:08.276Z,73.48
2019-05-28T05:42:15.001Z,74.11
2019-05-28T05:45:23.588Z,72.92
2019-05-28T05:48:29.935Z,72.56
2019-05-28T05:51:36.384Z,72.56
2019-05-28T05:54:43.138Z,72.25
2019-05-28T05:57:49.662Z,72.57
2019-05-28T06:00:56.406Z,71.92
2019-05-28T06:04:03.430Z,71.67
2019-05-28T06:07:10.228Z,71.63
2019-05-28T06:10:16.927Z,71.87
2019-05-28T06:13:23.267Z,71.36
2019-05-28T06:16:29.909Z,71.45
2019-05-28T06:19:36.791Z,70.55
2019-05-28T06:22:43.571Z,68.78
2019-05-28T06:25:51.364Z,68.38
2019-05-28T06:28:57.763Z,68.50
2019-05-28T06:32:04.183Z,68.31
2019-05-28T06:35:10.856Z,69.51
2019-05-28T06:38:17.287Z,68.25
2019-05-28T06:41:23.755Z,66.19
2019-05-28T06:44:30.201Z,65.49
2019-05-28T06:47:36.690Z,65.73
2019-05-28T06:50:43.124Z,66.44
2019-05-28T06:53:49.791Z,67.33
2019-05-28T06:56:56.307Z,65.95
2019-05-28T07:00:02.760Z,66.15
2019-05-28T07:03:09.231Z,65.90
2019-05-28T07:06:16.015Z,65.74
2019-05-28T07:09:22.585Z,67.50
2019-05-28T07:12:29.050Z,67.20
2019-05-28T07:15:35.418Z,66.84
2019-05-28T07:18:41.836Z,67.17
2019-05-28T07:21:48.520Z,66.07
2019-05-28T07:24:54.911Z,65.54
2019-05-28T07:28:11.003Z,65.97
2019-05-28T07:31:10.521Z,65.55
2019-05-28T07:34:30.418Z,64.65
2019-05-28T07:37:24.950Z,62.51
2019-05-28T07:40:32.389Z,62.82
2019-05-28T07:43:39.058Z,62.14
2019-05-28T07:46:45.556Z,62.14
2019-05-28T07:49:52.724Z,61.34
2019-05-28T07:52:59.148Z,60.55
2019-05-28T07:56:05.540Z,58.72
2019-05-28T07:59:12.217Z,59.15
2019-05-28T08:02:18.653Z,58.69
2019-05-28T08:05:24.943Z,58.23
2019-05-28T08:08:31.407Z,58.91
2019-05-28T08:11:39.156Z,58.04
2019-05-28T08:14:45.609Z,55.42
2019-05-28T08:17:51.972Z,54.50
2019-05-28T08:20:58.462Z,55.25
2019-05-28T08:24:05.256Z,55.63
2019-05-28T08:27:11.783Z,55.16
2019-05-28T08:30:18.250Z,55.72
2019-05-28T08:33:24.639Z,55.62
2019-05-28T08:36:31.191Z,55.39
2019-05-28T08:39:37.596Z,54.98
2019-05-28T08:42:43.979Z,55.04
2019-05-28T08:45:50.454Z,55.44
2019-05-28T08:48:57.941Z,56.53
2019-05-28T08:52:04.422Z,56.37
2019-05-28T08:55:11.692Z,57.43
2019-05-28T08:58:18.095Z,57.32
2019-05-28T09:01:25.024Z,57.55
2019-05-28T09:04:32.829Z,56.84
2019-05-28T09:07:39.172Z,56.94
2019-05-28T09:10:45.576Z,54.15
2019-05-28T09:13:52.076Z,52.98
2019-05-28T09:16:58.540Z,52.98
2019-05-28T09:20:05.504Z,54.57
2019-05-28T09:23:12.020Z,53.03
2019-05-28T09:26:19.014Z,53.03
2019-05-28T09:29:25.464Z,54.22
2019-05-28T09:32:31.774Z,53.79
2019-05-28T09:35:46.350Z,52.76
2019-05-28T09:38:48.556Z,51.75
2019-05-28T09:41:55.070Z,50.99
2019-05-28T09:45:01.495Z,50.23
2019-05-28T09:48:07.950Z,50.40
2019-05-28T09:51:14.381Z,49.02
2019-05-28T09:54:20.857Z,49.90
2019-05-28T09:57:27.652Z,50.08
2019-05-28T10:00:36.959Z,47.57
2019-05-28T10:03:43.593Z,47.20
2019-05-28T10:06:50.064Z,48.49
2019-05-28T10:09:57.516Z,46.76
2019-05-28T10:13:05.709Z,48.23
2019-05-28T10:16:12.147Z,48.23
2019-05-28T10:19:18.767Z,46.58
2019-05-28T10:22:25.255Z,46.74
2019-05-28T10:25:31.800Z,46.41
2019-05-28T10:28:38.710Z,45.52
2019-05-28T10:31:45.508Z,46.43
2019-05-28T10:35:03.301Z,44.50
2019-05-28T10:38:01.448Z,45.23
2019-05-28T10:41:07.876Z,45.48
2019-05-28T10:44:14.401Z,45.34
2019-05-28T10:47:21.523Z,45.53
2019-05-28T10:50:28.178Z,46.91
2019-05-28T10:53:35.174Z,46.41
2019-05-28T10:56:42.172Z,45.45
2019-05-28T10:59:48.566Z,45.45
2019-05-28T11:02:55.072Z,47.87
2019-05-28T11:06:02.171Z,49.44
2019-05-28T11:09:09.103Z,50.28
2019-05-28T11:12:15.514Z,51.05
2019-05-28T11:15:23.899Z,49.38
2019-05-28T11:18:30.716Z,51.03
2019-05-28T11:21:37.530Z,51.38
2019-05-28T11:24:43.880Z,51.11
2019-05-28T11:27:50.336Z,50.70
2019-05-28T11:30:57.046Z,51.84
2019-05-28T11:34:03.530Z,51.27
2019-05-28T11:37:10.355Z,52.13
2019-05-28T11:40:17.506Z,51.59
2019-05-28T11:43:24.337Z,50.08
2019-05-28T11:46:30.745Z,49.11
2019-05-28T11:49:37.161Z,51.18
2019-05-28T11:52:43.714Z,50.65
2019-05-28T11:55:50.429Z,50.65
2019-05-28T11:58:57.400Z,47.97
2019-05-28T12:02:05.311Z,47.09
2019-05-28T12:05:14.452Z,49.19
2019-05-28T12:08:21.354Z,47.74
2019-05-28T12:11:27.814Z,48.45
2019-05-28T12:14:34.553Z,49.54
2019-05-28T12:17:44.754Z,51.88
2019-05-28T12:20:49.420Z,52.39
2019-05-28T12:23:55.887Z,52.36
2019-05-28T12:27:02.768Z,51.47
2019-05-28T12:30:09.984Z,50.79
2019-05-28T12:33:16.661Z,50.03
2019-05-28T12:36:23.193Z,50.73
2019-05-28T12:39:29.638Z,51.68
2019-05-28T12:42:36.100Z,52.47
2019-05-28T12:45:42.453Z,53.65
2019-05-28T12:48:48.845Z,54.30
2019-05-28T12:51:55.314Z,54.24
2019-05-28T12:55:01.860Z,56.93
2019-05-28T12:58:09.269Z,61.17
2019-05-28T13:01:15.756Z,61.35
2019-05-28T13:04:22.177Z,62.66
2019-05-28T13:07:28.543Z,63.59
2019-05-28T13:10:35.730Z,63.06
2019-05-28T13:13:42.131Z,63.25
2019-05-28T13:16:48.580Z,62.96
2019-05-28T13:19:54.977Z,62.76
2019-05-28T13:23:01.419Z,62.94
2019-05-28T13:26:08.130Z,64.73
2019-05-28T13:29:14.613Z,65.08
2019-05-28T13:32:21.109Z,64.00
2019-05-28T13:35:28.013Z,64.31
2019-05-28T13:38:34.315Z,64.49
2019-05-28T13:41:40.753Z,64.40
2019-05-28T13:44:47.519Z,64.08
2019-05-28T13:47:53.932Z,64.05
2019-05-28T13:51:00.399Z,64.05
2019-05-28T13:54:07.798Z,63.90
2019-05-28T13:57:14.270Z,63.17
2019-05-28T14:00:21.942Z,61.77
2019-05-28T14:03:28.407Z,61.49
2019-05-28T14:06:34.894Z,58.11
2019-05-28T14:09:41.291Z,57.72
2019-05-28T14:12:48.620Z,55.81
2019-05-28T14:15:56.522Z,55.15
2019-05-28T14:19:03.243Z,53.29
2019-05-28T14:22:09.675Z,53.40
2019-05-28T14:25:17.036Z,54.27
2019-05-28T14:28:23.670Z,53.38
2019-05-28T14:31:30.164Z,51.71
2019-05-28T14:34:36.569Z,50.71
2019-05-28T14:37:43.556Z,50.62
2019-05-28T14:40:50.371Z,49.58
2019-05-28T14:43:56.816Z,50.98
2019-05-28T14:47:03.221Z,50.42
2019-05-28T14:50:10.212Z,50.17
2019-05-28T14:53:16.980Z,49.36
2019-05-28T14:56:23.353Z,49.57
2019-05-28T14:59:30.369Z,48.95
2019-05-28T15:02:36.862Z,49.43
2019-05-28T15:05:43.344Z,48.72
2019-05-28T15:08:50.179Z,49.86
2019-05-28T15:11:56.656Z,49.60
2019-05-28T15:15:03.416Z,49.52
2019-05-28T15:18:09.951Z,49.06
2019-05-28T15:21:16.456Z,48.61
2019-05-28T15:24:23.007Z,47.99
2019-05-28T15:27:29.538Z,49.07
2019-05-28T15:30:36.007Z,46.80
2019-05-28T15:33:42.468Z,47.16
2019-05-28T15:36:49.284Z,48.08
2019-05-28T15:39:57.106Z,48.57
2019-05-28T15:43:06.659Z,49.22
2019-05-28T15:46:12.039Z,48.37
2019-05-28T15:49:18.465Z,46.63
2019-05-28T15:52:25.060Z,48.26
2019-05-28T15:55:31.699Z,46.58
2019-05-28T15:58:38.092Z,46.58
2019-05-28T16:01:44.546Z,47.43
2019-05-28T16:04:51.156Z,48.14
2019-05-28T16:07:57.650Z,48.97
2019-05-28T16:11:04.095Z,47.29
2019-05-28T16:14:10.765Z,49.58
2019-05-28T16:17:17.518Z,49.58
2019-05-28T16:20:24.274Z,50.18
2019-05-28T16:23:30.711Z,50.34
2019-05-28T16:26:37.191Z,50.47
2019-05-28T16:29:43.744Z,51.70
2019-05-28T16:32:50.375Z,51.87
2019-05-28T16:35:56.828Z,51.75
2019-05-28T16:39:03.347Z,51.36
2019-05-28T16:42:11.209Z,51.93
2019-05-28T16:45:18.406Z,51.93
2019-05-28T16:48:24.898Z,51.47
2019-05-28T16:51:31.407Z,51.67
2019-05-28T16:54:37.963Z,51.00
2019-05-28T16:57:44.446Z,51.04
2019-05-28T17:00:50.967Z,52.17
2019-05-28T17:04:00.146Z,51.84
2019-05-28T17:07:07.364Z,51.11
2019-05-28T17:10:30.768Z,52.03
2019-05-28T17:13:22.101Z,52.99
2019-05-28T17:16:28.491Z,53.35
2019-05-28T17:19:35.405Z,54.30
2019-05-28T17:22:43.544Z,54.37
2019-05-28T17:25:50.375Z,54.73
2019-05-28T17:28:57.416Z,54.73
2019-05-28T17:32:06.916Z,55.49
2019-05-28T17:35:17.910Z,55.49
2019-05-28T17:38:25.815Z,55.58
2019-05-28T17:41:33.048Z,56.33
2019-05-28T17:44:39.737Z,57.47
2019-05-28T17:47:46.738Z,57.33
2019-05-28T17:50:53.351Z,58.23
2019-05-28T17:53:59.745Z,58.59
2019-05-28T17:57:06.256Z,58.99
2019-05-28T18:00:13.809Z,59.24
2019-05-28T18:03:20.252Z,59.65
2019-05-28T18:06:26.784Z,59.73
2019-05-28T18:09:33.253Z,60.27
2019-05-28T18:12:39.952Z,60.33
2019-05-28T18:15:46.337Z,60.51
2019-05-28T18:18:52.894Z,60.85
2019-05-28T18:21:59.525Z,60.50
2019-05-28T18:25:06.600Z,60.89
2019-05-28T18:28:13.020Z,60.89
2019-05-28T18:31:19.464Z,61.33
2019-05-28T18:34:26.109Z,61.45
2019-05-28T18:37:32.405Z,61.56
2019-05-28T18:40:38.949Z,62.20
2019-05-28T18:43:45.369Z,62.20
2019-05-28T18:46:52.119Z,61.87
2019-05-28T18:50:03.187Z,62.20
2019-05-28T18:53:06.687Z,62.29
2019-05-28T18:56:17.813Z,62.63
2019-05-28T18:59:24.607Z,62.96
2019-05-28T19:02:31.293Z,62.85
2019-05-28T19:05:37.762Z,63.41
2019-05-28T19:08:47.255Z,63.05
2019-05-28T19:11:55.191Z,63.25
2019-05-28T19:15:01.874Z,63.33
2019-05-28T19:18:08.348Z,63.27
2019-05-28T19:21:14.877Z,63.49
2019-05-28T19:24:23.395Z,64.04
2019-05-28T19:27:31.165Z,63.60
2019-05-28T19:30:37.542Z,63.62
2019-05-28T19:33:44.058Z,63.73
2019-05-28T19:36:50.991Z,63.98
2019-05-28T19:39:57.299Z,63.97
2019-05-28T19:43:03.676Z,64.26
2019-05-28T19:46:10.210Z,64.33
2019-05-28T19:49:17.498Z,64.53
2019-05-28T19:52:23.850Z,64.94
2019-05-28T19:55:30.236Z,65.08
2019-05-28T19:58:36.601Z,64.68
2019-05-28T20:01:43.842Z,65.03
2019-05-28T20:04:50.403Z,65.14
2019-05-28T20:07:56.907Z,65.10
2019-05-28T20:11:03.363Z,65.26
2019-05-28T20:14:11.204Z,65.44
2019-05-28T20:17:17.660Z,65.47
2019-05-28T20:20:24.099Z,65.47
2019-05-28T20:23:30.512Z,65.61
2019-05-28T20:26:37.326Z,65.72
2019-05-28T20:29:46.479Z,65.98
2019-05-28T20:32:54.959Z,66.28
2019-05-28T20:36:01.924Z,66.77
2019-05-28T20:39:10.015Z,67.00
2019-05-28T20:42:26.967Z,67.54
2019-05-28T20:45:24.527Z,67.94
2019-05-28T20:48:31.119Z,68.42
2019-05-28T20:51:37.973Z,67.68
2019-05-28T20:54:44.345Z,68.35
2019-05-28T20:57:51.181Z,68.04
2019-05-28T21:00:57.913Z,68.91
2019-05-28T21:04:04.421Z,69.55
2019-05-28T21:07:11.018Z,69.30
2019-05-28T21:10:17.436Z,69.66
2019-05-28T21:13:23.885Z,69.95
2019-05-28T21:16:30.342Z,70.21
2019-05-28T21:19:37.899Z,70.19
2019-05-28T21:22:44.188Z,70.19
2019-05-28T21:25:52.029Z,70.77
2019-05-28T21:28:58.837Z,70.89
2019-05-28T21:32:05.268Z,70.89
2019-05-28T21:35:11.718Z,71.50
2019-05-28T21:38:18.136Z,71.19
2019-05-28T21:41:24.645Z,71.96
2019-05-28T21:44:31.230Z,72.94
2019-05-28T21:47:37.977Z,72.54
2019-05-28T21:50:44.385Z,73.03
2019-05-28T21:53:51.058Z,73.57
2019-05-28T21:56:57.404Z,73.19
2019-05-28T22:00:04.383Z,73.38
2019-05-28T22:03:12.899Z,73.48
2019-05-28T22:06:20.087Z,74.12
2019-05-28T22:09:26.660Z,73.73
2019-05-28T22:12:34.337Z,74.80
2019-05-28T22:15:40.984Z,74.74
2019-05-28T22:18:47.634Z,75.04
2019-05-28T22:21:54.345Z,74.31
2019-05-28T22:25:00.912Z,75.90
2019-05-28T22:28:07.569Z,76.83
2019-05-28T22:31:15.013Z,76.00
2019-05-28T22:34:21.775Z,75.82
2019-05-28T22:37:28.409Z,76.36
2019-05-28T22:40:35.377Z,76.35
2019-05-28T22:43:42.047Z,76.57
2019-05-28T22:46:48.826Z,77.45
2019-05-28T22:50:12.094Z,77.78
2019-05-28T22:53:03.965Z,77.09
2019-05-28T22:56:10.928Z,77.85
2019-05-28T22:59:17.639Z,77.56
2019-05-28T23:02:24.121Z,78.18
2019-05-28T23:05:30.512Z,77.02
2019-05-28T23:08:37.116Z,78.32
2019-05-28T23:11:43.956Z,78.11
2019-05-28T23:14:50.740Z,79.44
2019-05-28T23:17:57.388Z,79.26
2019-05-28T23:21:04.749Z,79.38
2019-05-28T23:24:11.449Z,80.10
2019-05-28T23:27:17.926Z,80.08
2019-05-28T23:30:25.464Z,80.29
2019-05-28T23:33:32.204Z,80.72
2019-05-28T23:36:38.895Z,80.54
2019-05-28T23:39:45.241Z,80.07
2019-05-28T23:42:52.029Z,79.67
2019-05-28T23:45:58.487Z,80.11
2019-05-28T23:49:06.029Z,80.17
2019-05-28T23:52:12.794Z,80.34
2019-05-28T23:55:19.068Z,80.55
2019-05-28T23:58:25.790Z,80.08
